createdAt,value
2017-11-26T00:09:25.000Z,43.806
2017-11-26T00:19:25.000Z,43.642
2017-11-26T00:29:26.000Z,43.843
2017-11-26T00:39:26.000Z,43.69
2017-11-26T00:49:26.000Z,43.922
2017-11-26T00:59:26.000Z,43.92
2017-11-26T01:09:26.000Z,44.218
2017-11-26T01:19:26.000Z,44.397
2017-11-26T01:29:26.000Z,44.127
2017-11-26T01:39:26.000Z,44.423
2017-11-26T01:49:26.000Z,44.626
2017-11-26T01:59:26.000Z,44.644
2017-11-26T02:09:26.000Z,44.727
2017-11-26T02:19:26.000Z,44.841
2017-11-26T02:29:26.000Z,44.935
2017-11-26T02:39:26.000Z,44.87
2017-11-26T02:49:26.000Z,44.919
2017-11-26T02:59:26.000Z,44.886
2017-11-26T03:09:26.000Z,44.958
2017-11-26T03:19:26.000Z,44.978
2017-11-26T03:29:26.000Z,45.017
2017-11-26T03:39:26.000Z,45.027
2017-11-26T03:49:26.000Z,45.045
2017-11-26T03:59:26.000Z,45.128
2017-11-26T04:19:26.000Z,44.986
2017-11-26T04:39:26.000Z,45.044
2017-11-26T04:49:26.000Z,45.043
2017-11-26T04:59:26.000Z,44.206
2017-11-26T05:09:26.000Z,44.238
2017-11-26T05:19:26.000Z,44.25
2017-11-26T05:29:26.000Z,44.175
2017-11-26T05:39:26.000Z,43.866
2017-11-26T05:49:26.000Z,43.994
2017-11-26T05:59:26.000Z,43.867
2017-11-26T06:09:26.000Z,43.728
2017-11-26T06:19:26.000Z,43.653
2017-11-26T06:29:26.000Z,43.482
2017-11-26T06:39:26.000Z,43.213
2017-11-26T06:49:26.000Z,43.15
2017-11-26T06:59:26.000Z,43
2017-11-26T07:09:26.000Z,42.902
2017-11-26T07:19:26.000Z,42.892
2017-11-26T07:29:26.000Z,42.592
2017-11-26T07:39:26.000Z,41.792
2017-11-26T07:49:26.000Z,40.808
2017-11-26T07:59:26.000Z,39.666
2017-11-26T08:09:26.000Z,38.961
2017-11-26T08:19:26.000Z,38.5
2017-11-26T08:29:26.000Z,37.821
2017-11-26T08:39:26.000Z,37.658
2017-11-26T08:49:27.000Z,37.848
2017-11-26T08:59:27.000Z,37.781
2017-11-26T09:09:27.000Z,38.099
2017-11-26T09:19:27.000Z,38.147
2017-11-26T09:29:27.000Z,38.512
2017-11-26T09:39:27.000Z,38.55
2017-11-26T09:49:27.000Z,38.758
2017-11-26T09:59:27.000Z,38.621
2017-11-26T10:09:27.000Z,38.623
2017-11-26T10:19:27.000Z,39.824
2017-11-26T10:29:27.000Z,40.812
2017-11-26T10:39:27.000Z,40.884
2017-11-26T10:49:27.000Z,40.974
2017-11-26T10:59:27.000Z,40.981
2017-11-26T11:09:27.000Z,41.093
2017-11-26T11:19:27.000Z,41.296
2017-11-26T11:29:27.000Z,41.241
2017-11-26T11:39:27.000Z,41.375
2017-11-26T11:49:27.000Z,41.034
2017-11-26T11:59:27.000Z,34.875
2017-11-26T12:09:27.000Z,38.981
2017-11-26T12:19:27.000Z,39.451
2017-11-26T12:29:27.000Z,39.571
2017-11-26T12:39:27.000Z,39.878
2017-11-26T12:49:27.000Z,40.369
2017-11-26T12:59:27.000Z,40.524
2017-11-26T13:09:27.000Z,40.535
2017-11-26T13:19:27.000Z,40.785
2017-11-26T13:29:27.000Z,40.701
2017-11-26T13:39:27.000Z,41.068
2017-11-26T13:49:27.000Z,41.122
2017-11-26T13:59:27.000Z,40.886
2017-11-26T14:09:27.000Z,41.034
2017-11-26T14:19:27.000Z,40.32
2017-11-26T14:29:27.000Z,40.15
2017-11-26T14:39:27.000Z,40.248
2017-11-26T14:49:27.000Z,40.248
2017-11-26T14:59:27.000Z,40.222
2017-11-26T15:09:29.000Z,40.614
2017-11-26T15:19:27.000Z,40.426
2017-11-26T15:29:27.000Z,40.26
2017-11-26T15:39:27.000Z,40.367
2017-11-26T15:49:28.000Z,40.377
2017-11-26T15:59:27.000Z,40.753
2017-11-26T16:09:27.000Z,40.941
2017-11-26T16:19:27.000Z,41.093
2017-11-26T16:29:27.000Z,41.192
2017-11-26T16:39:27.000Z,40.848
2017-11-26T16:49:27.000Z,41.183
2017-11-26T16:59:27.000Z,41.15
2017-11-26T17:09:28.000Z,40.761
2017-11-26T17:19:28.000Z,41.039
2017-11-26T17:29:28.000Z,41.566
2017-11-26T17:39:28.000Z,41.979
2017-11-26T17:49:28.000Z,42.613
2017-11-26T17:59:28.000Z,42.769
2017-11-26T18:09:28.000Z,42.469
2017-11-26T18:19:28.000Z,41.719
2017-11-26T18:29:28.000Z,42.358
2017-11-26T18:39:28.000Z,42.208
2017-11-26T18:49:28.000Z,41.673
2017-11-26T18:59:28.000Z,41.307
2017-11-26T19:09:28.000Z,40.759
2017-11-26T19:19:28.000Z,41.16
2017-11-26T19:29:28.000Z,40.291
2017-11-26T19:39:28.000Z,40.285
2017-11-26T19:49:28.000Z,40.318
2017-11-26T19:59:28.000Z,40.179
2017-11-26T20:09:29.000Z,40.409
2017-11-26T20:19:28.000Z,40.742
2017-11-26T20:29:28.000Z,41.002
2017-11-26T20:39:28.000Z,40.815
2017-11-26T20:49:28.000Z,40.938
2017-11-26T20:59:28.000Z,40.916
2017-11-26T21:09:32.000Z,41.092
2017-11-26T21:19:29.000Z,40.826
2017-11-26T21:29:28.000Z,40.178
2017-11-26T21:39:28.000Z,40.057
2017-11-26T21:49:28.000Z,40.052
2017-11-26T21:59:28.000Z,39.916
2017-11-26T22:09:28.000Z,40.165
2017-11-26T22:19:28.000Z,39.62
2017-11-26T22:29:28.000Z,39.983
2017-11-26T22:39:28.000Z,40.011
2017-11-26T22:49:28.000Z,40.032
2017-11-26T22:59:28.000Z,39.825
2017-11-26T23:09:28.000Z,39.951
2017-11-26T23:19:28.000Z,39.773
2017-11-26T23:29:28.000Z,39.964
2017-11-26T23:39:28.000Z,40.189
2017-11-26T23:49:28.000Z,39.969
2017-11-26T23:59:28.000Z,39.89
